Time,TemperatureF,DewpointF,PressureIn,WindDirection,WindDirectionDegrees,WindSpeedMPH,WindSpeedGustMPH,Humidity,HourlyPrecipIn,Conditions,Clouds,dailyrainin,SoftwareType,DateUTC
2013-03-16 00:02:00,56.0,48.0,30.04,WSW,243,3.0,8.0,75,0.00,,,0.00,,2013-03-16 04:02:00,
2013-03-16 00:13:00,56.0,48.0,30.04,WSW,243,3.0,8.0,75,0.00,,,0.00,,2013-03-16 04:13:00,
2013-03-16 00:23:00,56.0,48.0,30.03,WSW,243,3.0,7.0,75,0.00,,,0.00,,2013-03-16 04:23:00,
2013-03-16 00:33:00,56.0,48.0,30.03,WSW,243,3.0,7.0,75,0.00,,,0.00,,2013-03-16 04:33:00,
2013-03-16 00:43:00,56.0,48.0,30.03,WSW,243,3.0,7.0,75,0.00,,,0.00,,2013-03-16 04:43:00,
2013-03-16 00:53:00,56.0,49.0,30.02,SW,228,2.0,6.0,77,0.00,,,0.00,,2013-03-16 04:53:00,
2013-03-16 01:02:00,56.0,49.0,30.02,SW,227,3.0,7.0,77,0.00,,,0.00,,2013-03-16 05:02:00,
2013-03-16 01:12:00,56.0,49.0,30.02,SW,227,3.0,7.0,77,0.00,,,0.00,,2013-03-16 05:12:00,
2013-03-16 01:22:00,56.0,50.0,30.01,SW,232,2.0,7.0,79,0.00,,,0.00,,2013-03-16 05:22:00,
2013-03-16 01:32:00,56.0,50.0,30.01,WSW,238,3.0,6.0,79,0.00,,,0.00,,2013-03-16 05:32:00,
2013-03-16 01:42:00,56.0,50.0,30.01,WSW,238,3.0,6.0,79,0.00,,,0.00,,2013-03-16 05:42:00,
2013-03-16 01:53:00,56.0,50.0,30.01,SSW,213,3.0,5.0,80,0.00,,,0.00,,2013-03-16 05:53:00,
2013-03-16 02:02:00,56.0,50.0,30.01,SW,224,2.0,6.0,80,0.00,,,0.00,,2013-03-16 06:02:00,
2013-03-16 02:12:00,56.0,50.0,30.01,SW,224,2.0,6.0,80,0.00,,,0.00,,2013-03-16 06:12:00,
2013-03-16 02:22:00,56.0,50.0,30.00,SW,222,2.0,5.0,80,0.00,,,0.00,,2013-03-16 06:22:00,
2013-03-16 02:32:00,56.0,50.0,30.00,SW,222,2.0,5.0,80,0.00,,,0.00,,2013-03-16 06:32:00,
2013-03-16 02:42:00,56.0,50.0,30.00,SW,222,2.0,5.0,80,0.00,,,0.00,,2013-03-16 06:42:00,
2013-03-16 02:52:00,56.0,50.0,30.00,SW,226,3.0,6.0,81,0.00,,,0.00,,2013-03-16 06:52:00,
2013-03-16 03:02:00,56.0,50.0,30.00,SW,226,3.0,6.0,81,0.00,,,0.00,,2013-03-16 07:02:00,
2013-03-16 03:12:00,56.0,50.0,30.00,SW,226,3.0,6.0,81,0.00,,,0.00,,2013-03-16 07:12:00,
2013-03-16 03:22:00,56.0,50.0,29.99,WSW,238,2.0,6.0,79,0.00,,,0.00,,2013-03-16 07:22:00,
2013-03-16 03:32:00,56.0,50.0,29.99,SW,228,3.0,6.0,79,0.00,,,0.00,,2013-03-16 07:32:00,
2013-03-16 03:42:00,56.0,50.0,29.99,SW,228,3.0,6.0,79,0.00,,,0.00,,2013-03-16 07:42:00,
2013-03-16 03:52:00,56.0,49.0,29.98,SW,233,2.0,5.0,77,0.00,,,0.00,,2013-03-16 07:52:00,
2013-03-16 04:03:00,56.0,49.0,29.98,SW,233,2.0,5.0,77,0.00,,,0.00,,2013-03-16 08:03:00,
2013-03-16 04:12:00,56.0,49.0,29.98,SW,233,2.0,5.0,77,0.00,,,0.00,,2013-03-16 08:12:00,
2013-03-16 04:23:00,56.0,47.0,29.98,WSW,247,2.0,7.0,72,0.00,,,0.00,,2013-03-16 08:23:00,
2013-03-16 04:32:00,56.0,46.0,29.98,WSW,256,2.0,6.0,70,0.00,,,0.00,,2013-03-16 08:32:00,
2013-03-16 04:42:00,56.0,46.0,29.98,WSW,256,2.0,6.0,70,0.00,,,0.00,,2013-03-16 08:42:00,
2013-03-16 04:52:00,56.0,46.0,29.98,West,263,2.0,5.0,68,0.00,,,0.00,,2013-03-16 08:52:00,
2013-03-16 05:02:00,56.0,46.0,29.98,West,263,2.0,5.0,68,0.00,,,0.00,,2013-03-16 09:02:00,
2013-03-16 05:12:00,56.0,46.0,29.98,West,263,2.0,5.0,68,0.00,,,0.00,,2013-03-16 09:12:00,
2013-03-16 05:22:00,55.0,44.0,29.97,WSW,248,3.0,6.0,67,0.00,,,0.00,,2013-03-16 09:22:00,
2013-03-16 05:33:00,55.0,44.0,29.97,WSW,248,3.0,6.0,67,0.00,,,0.00,,2013-03-16 09:33:00,
2013-03-16 05:43:00,55.0,44.0,29.97,WSW,248,3.0,6.0,67,0.00,,,0.00,,2013-03-16 09:43:00,
2013-03-16 05:53:00,56.0,44.0,29.97,West,260,4.0,7.0,64,0.00,,,0.00,,2013-03-16 09:53:00,
2013-03-16 06:03:00,56.0,44.0,29.97,West,260,4.0,7.0,64,0.00,,,0.00,,2013-03-16 10:03:00,
2013-03-16 06:12:00,56.0,44.0,29.97,West,260,4.0,7.0,64,0.00,,,0.00,,2013-03-16 10:12:00,
2013-03-16 06:23:00,56.0,44.0,29.98,West,280,3.0,7.0,63,0.00,,,0.00,,2013-03-16 10:23:00,
2013-03-16 06:32:00,56.0,44.0,29.98,WSW,247,3.0,5.0,64,0.00,,,0.00,,2013-03-16 10:32:00,
2013-03-16 06:42:00,56.0,44.0,29.98,WSW,247,3.0,5.0,64,0.00,,,0.00,,2013-03-16 10:42:00,
2013-03-16 06:53:00,55.0,43.0,29.99,West,277,2.0,6.0,65,0.00,,,0.00,,2013-03-16 10:53:00,
2013-03-16 07:03:00,55.0,44.0,29.99,WSW,253,1.0,5.0,66,0.00,,,0.00,,2013-03-16 11:03:00,
2013-03-16 07:12:00,55.0,44.0,29.99,WSW,253,1.0,5.0,66,0.00,,,0.00,,2013-03-16 11:12:00,
2013-03-16 07:22:00,54.0,43.0,29.99,West,276,1.0,3.0,66,0.00,,,0.00,,2013-03-16 11:22:00,
2013-03-16 07:33:00,54.0,43.0,29.99,WSW,238,2.0,3.0,67,0.00,,,0.00,,2013-03-16 11:33:00,
2013-03-16 07:43:00,54.0,43.0,29.99,WSW,238,2.0,3.0,67,0.00,,,0.00,,2013-03-16 11:43:00,
2013-03-16 07:53:00,54.0,43.0,29.99,WSW,253,1.0,3.0,67,0.00,,,0.00,,2013-03-16 11:53:00,
2013-03-16 08:02:00,54.0,44.0,30.00,WSW,239,1.0,3.0,68,0.00,,,0.00,,2013-03-16 12:02:00,
2013-03-16 08:12:00,54.0,44.0,30.00,WSW,239,1.0,3.0,68,0.00,,,0.00,,2013-03-16 12:12:00,
2013-03-16 08:22:00,54.0,44.0,30.00,WSW,254,1.0,3.0,69,0.00,,,0.00,,2013-03-16 12:22:00,
2013-03-16 08:32:00,54.0,44.0,30.01,WSW,242,1.0,3.0,69,0.00,,,0.00,,2013-03-16 12:32:00,
2013-03-16 08:42:00,54.0,44.0,30.01,WSW,242,1.0,3.0,69,0.00,,,0.00,,2013-03-16 12:42:00,
2013-03-16 08:53:00,54.0,44.0,30.01,WSW,238,2.0,3.0,68,0.00,,,0.00,,2013-03-16 12:53:00,
2013-03-16 09:02:00,55.0,44.0,30.01,SW,229,1.0,3.0,67,0.00,,,0.00,,2013-03-16 13:02:00,
2013-03-16 09:12:00,55.0,44.0,30.01,SW,229,1.0,3.0,67,0.00,,,0.00,,2013-03-16 13:12:00,
2013-03-16 09:22:00,56.0,44.0,30.01,West,265,2.0,5.0,65,0.00,,,0.00,,2013-03-16 13:22:00,
2013-03-16 09:32:00,56.0,44.0,30.01,West,265,2.0,5.0,65,0.00,,,0.00,,2013-03-16 13:32:00,
2013-03-16 09:42:00,56.0,44.0,30.01,West,265,2.0,5.0,65,0.00,,,0.00,,2013-03-16 13:42:00,
2013-03-16 09:52:00,60.0,45.0,30.01,WSW,237,3.0,5.0,58,0.00,,,0.00,,2013-03-16 13:52:00,
2013-03-16 10:03:00,61.0,45.0,30.01,WSW,254,2.0,7.0,56,0.00,,,0.00,,2013-03-16 14:03:00,
2013-03-16 10:12:00,61.0,45.0,30.01,WSW,254,2.0,7.0,56,0.00,,,0.00,,2013-03-16 14:12:00,
2013-03-16 10:22:00,63.0,46.0,30.00,West,266,2.0,6.0,53,0.00,,,0.00,,2013-03-16 14:22:00,
2013-03-16 10:32:00,64.0,47.0,30.00,WSW,245,3.0,7.0,53,0.00,,,0.00,,2013-03-16 14:32:00,
2013-03-16 10:42:00,64.0,47.0,30.00,WSW,245,3.0,7.0,53,0.00,,,0.00,,2013-03-16 14:42:00,
2013-03-16 10:53:00,65.0,46.0,30.00,WSW,239,3.0,8.0,51,0.00,,,0.00,,2013-03-16 14:53:00,
2013-03-16 11:03:00,68.0,48.0,29.99,West,261,3.0,8.0,48,0.00,,,0.00,,2013-03-16 15:03:00,
2013-03-16 11:13:00,68.0,48.0,29.99,West,261,3.0,8.0,48,0.00,,,0.00,,2013-03-16 15:13:00,
2013-03-16 11:23:00,69.0,47.0,29.99,West,267,3.0,7.0,46,0.00,,,0.00,,2013-03-16 15:23:00,
2013-03-16 11:33:00,70.0,47.0,29.99,WSW,238,5.0,9.0,44,0.00,,,0.00,,2013-03-16 15:33:00,
2013-03-16 11:43:00,70.0,47.0,29.99,WSW,238,5.0,9.0,44,0.00,,,0.00,,2013-03-16 15:43:00,
2013-03-16 11:53:00,71.0,48.0,29.98,West,277,2.0,8.0,44,0.00,,,0.00,,2013-03-16 15:53:00,
2013-03-16 12:03:00,72.0,48.0,29.97,West,262,3.0,8.0,42,0.00,,,0.00,,2013-03-16 16:03:00,
2013-03-16 12:13:00,72.0,48.0,29.97,West,262,3.0,8.0,42,0.00,,,0.00,,2013-03-16 16:13:00,
2013-03-16 12:23:00,72.0,48.0,29.97,West,262,3.0,8.0,42,0.00,,,0.00,,2013-03-16 16:23:00,
2013-03-16 12:33:00,74.0,48.0,29.96,West,262,3.0,7.0,40,0.00,,,0.00,,2013-03-16 16:33:00,
2013-03-16 12:43:00,74.0,48.0,29.96,West,262,3.0,7.0,40,0.00,,,0.00,,2013-03-16 16:43:00,
2013-03-16 12:53:00,75.0,48.0,29.96,West,279,6.0,10.0,38,0.00,,,0.00,,2013-03-16 16:53:00,
2013-03-16 13:03:00,76.0,49.0,29.96,WSW,256,3.0,8.0,38,0.00,,,0.00,,2013-03-16 17:03:00,
2013-03-16 13:13:00,76.0,49.0,29.96,WSW,256,3.0,8.0,38,0.00,,,0.00,,2013-03-16 17:13:00,
2013-03-16 13:23:00,77.0,49.0,29.94,SW,214,3.0,9.0,38,0.00,,,0.00,,2013-03-16 17:23:00,
2013-03-16 13:33:00,77.0,48.0,29.94,SSW,212,3.0,8.0,36,0.00,,,0.00,,2013-03-16 17:33:00,
2013-03-16 13:42:00,77.0,48.0,29.94,SSW,212,3.0,8.0,36,0.00,,,0.00,,2013-03-16 17:42:00,
2013-03-16 13:53:00,77.0,49.0,29.93,WSW,250,2.0,12.0,37,0.00,,,0.00,,2013-03-16 17:53:00,
2013-03-16 14:02:00,78.0,47.0,29.93,SSW,206,5.0,12.0,34,0.00,,,0.00,,2013-03-16 18:02:00,
2013-03-16 14:13:00,78.0,47.0,29.93,SSW,206,5.0,12.0,34,0.00,,,0.00,,2013-03-16 18:13:00,
2013-03-16 14:23:00,79.0,48.0,29.92,SW,221,4.0,9.0,34,0.00,,,0.00,,2013-03-16 18:23:00,
2013-03-16 14:33:00,79.0,48.0,29.91,WSW,239,5.0,8.0,34,0.00,,,0.00,,2013-03-16 18:33:00,
2013-03-16 14:43:00,79.0,48.0,29.91,WSW,239,5.0,8.0,34,0.00,,,0.00,,2013-03-16 18:43:00,
2013-03-16 14:52:00,79.0,48.0,29.90,SSW,208,5.0,10.0,34,0.00,,,0.00,,2013-03-16 18:52:00,
2013-03-16 15:02:00,79.0,49.0,29.89,SW,226,4.0,9.0,35,0.00,,,0.00,,2013-03-16 19:02:00,
2013-03-16 15:12:00,79.0,49.0,29.89,SW,226,4.0,9.0,35,0.00,,,0.00,,2013-03-16 19:12:00,
2013-03-16 15:22:00,78.0,52.0,29.89,South,169,6.0,14.0,40,0.00,,,0.00,,2013-03-16 19:22:00,
2013-03-16 15:33:00,78.0,52.0,29.89,South,169,6.0,14.0,40,0.00,,,0.00,,2013-03-16 19:33:00,
2013-03-16 15:42:00,78.0,52.0,29.89,South,169,6.0,14.0,40,0.00,,,0.00,,2013-03-16 19:42:00,
2013-03-16 15:52:00,77.0,52.0,29.87,SW,233,7.0,12.0,42,0.00,,,0.00,,2013-03-16 19:52:00,
2013-03-16 16:03:00,77.0,52.0,29.87,SW,233,7.0,12.0,42,0.00,,,0.00,,2013-03-16 20:03:00,
2013-03-16 16:12:00,77.0,52.0,29.87,SW,233,7.0,12.0,42,0.00,,,0.00,,2013-03-16 20:12:00,
2013-03-16 16:22:00,76.0,52.0,29.86,SSW,194,4.0,12.0,43,0.00,,,0.00,,2013-03-16 20:22:00,
2013-03-16 16:33:00,75.0,51.0,29.86,WSW,237,2.0,10.0,43,0.00,,,0.00,,2013-03-16 20:33:00,
2013-03-16 16:42:00,75.0,51.0,29.86,WSW,237,2.0,10.0,43,0.00,,,0.00,,2013-03-16 20:42:00,
2013-03-16 16:53:00,74.0,52.0,29.86,SW,220,3.0,7.0,46,0.00,,,0.00,,2013-03-16 20:53:00,
2013-03-16 17:02:00,74.0,52.0,29.86,SW,220,3.0,7.0,46,0.00,,,0.00,,2013-03-16 21:02:00,
2013-03-16 17:12:00,74.0,52.0,29.86,SW,220,3.0,7.0,46,0.00,,,0.00,,2013-03-16 21:12:00,
2013-03-16 17:23:00,72.0,52.0,29.86,South,189,3.0,9.0,49,0.00,,,0.00,,2013-03-16 21:23:00,
2013-03-16 17:33:00,72.0,52.0,29.86,South,189,3.0,9.0,49,0.00,,,0.00,,2013-03-16 21:33:00,
2013-03-16 17:43:00,72.0,52.0,29.86,South,189,3.0,9.0,49,0.00,,,0.00,,2013-03-16 21:43:00,
2013-03-16 17:53:00,73.0,52.0,29.87,SW,230,4.0,7.0,48,0.00,,,0.00,,2013-03-16 21:53:00,
2013-03-16 18:03:00,72.0,52.0,29.87,SW,218,2.0,7.0,50,0.00,,,0.00,,2013-03-16 22:03:00,
2013-03-16 18:13:00,72.0,52.0,29.87,SW,218,2.0,7.0,50,0.00,,,0.00,,2013-03-16 22:13:00,
2013-03-16 18:23:00,72.0,53.0,29.86,SW,232,3.0,6.0,51,0.00,,,0.00,,2013-03-16 22:23:00,
2013-03-16 18:33:00,72.0,53.0,29.86,SW,232,3.0,6.0,51,0.00,,,0.00,,2013-03-16 22:33:00,
2013-03-16 18:42:00,72.0,53.0,29.86,SW,232,3.0,6.0,51,0.00,,,0.00,,2013-03-16 22:42:00,
2013-03-16 18:53:00,69.0,53.0,29.86,SW,217,3.0,8.0,56,0.00,,,0.00,,2013-03-16 22:53:00,
2013-03-16 19:02:00,69.0,53.0,29.86,SW,217,3.0,8.0,56,0.00,,,0.00,,2013-03-16 23:02:00,
2013-03-16 19:13:00,69.0,53.0,29.86,SW,217,3.0,8.0,56,0.00,,,0.00,,2013-03-16 23:13:00,
2013-03-16 19:23:00,65.0,52.0,29.87,SW,226,2.0,5.0,62,0.00,,,0.00,,2013-03-16 23:23:00,
2013-03-16 19:33:00,64.0,52.0,29.88,SW,231,1.0,6.0,64,0.00,,,0.00,,2013-03-16 23:33:00,
2013-03-16 19:42:00,64.0,52.0,29.88,SW,231,1.0,6.0,64,0.00,,,0.00,,2013-03-16 23:42:00,
2013-03-16 19:53:00,64.0,53.0,29.88,SW,220,2.0,3.0,67,0.00,,,0.00,,2013-03-16 23:53:00,
2013-03-16 20:02:00,62.0,52.0,29.88,SSW,204,2.0,6.0,69,0.00,,,0.00,,2013-03-17 00:02:00,
2013-03-16 20:12:00,62.0,52.0,29.88,SSW,204,2.0,6.0,69,0.00,,,0.00,,2013-03-17 00:12:00,
2013-03-16 20:23:00,61.0,52.0,29.89,SSW,212,2.0,6.0,72,0.00,,,0.00,,2013-03-17 00:23:00,
2013-03-16 20:33:00,61.0,52.0,29.89,SW,214,2.0,5.0,72,0.00,,,0.00,,2013-03-17 00:33:00,
2013-03-16 20:42:00,61.0,52.0,29.89,SW,214,2.0,5.0,72,0.00,,,0.00,,2013-03-17 00:42:00,
2013-03-16 20:53:00,61.0,53.0,29.89,SW,216,2.0,5.0,74,0.00,,,0.00,,2013-03-17 00:53:00,
2013-03-16 21:02:00,60.0,52.0,29.91,SSW,208,2.0,3.0,75,0.00,,,0.00,,2013-03-17 01:02:00,
2013-03-16 21:12:00,60.0,52.0,29.91,SSW,208,2.0,3.0,75,0.00,,,0.00,,2013-03-17 01:12:00,
2013-03-16 21:22:00,60.0,52.0,29.91,WSW,244,1.0,3.0,75,0.00,,,0.00,,2013-03-17 01:22:00,
2013-03-16 21:32:00,59.0,52.0,29.91,South,176,1.0,3.0,77,0.00,,,0.00,,2013-03-17 01:32:00,
2013-03-16 21:42:00,59.0,52.0,29.91,South,176,1.0,3.0,77,0.00,,,0.00,,2013-03-17 01:42:00,
2013-03-16 21:52:00,59.0,52.0,29.92,SSE,156,1.0,3.0,78,0.00,,,0.00,,2013-03-17 01:52:00,
2013-03-16 22:03:00,59.0,52.0,29.92,SW,222,2.0,5.0,77,0.00,,,0.00,,2013-03-17 02:03:00,
2013-03-16 22:13:00,59.0,52.0,29.92,SW,222,2.0,5.0,77,0.00,,,0.00,,2013-03-17 02:13:00,
2013-03-16 22:22:00,59.0,52.0,29.93,WSW,237,1.0,5.0,77,0.00,,,0.00,,2013-03-17 02:22:00,
2013-03-16 22:33:00,59.0,52.0,29.93,WSW,252,2.0,3.0,77,0.00,,,0.00,,2013-03-17 02:33:00,
2013-03-16 22:43:00,59.0,52.0,29.93,WSW,252,2.0,3.0,77,0.00,,,0.00,,2013-03-17 02:43:00,
2013-03-16 22:53:00,59.0,51.0,29.94,SW,223,1.0,3.0,76,0.00,,,0.00,,2013-03-17 02:53:00,
2013-03-16 23:03:00,58.0,50.0,29.93,SW,225,2.0,5.0,76,0.00,,,0.00,,2013-03-17 03:03:00,
2013-03-16 23:12:00,58.0,50.0,29.93,SW,225,2.0,5.0,76,0.00,,,0.00,,2013-03-17 03:12:00,
2013-03-16 23:23:00,58.0,50.0,29.94,SW,229,2.0,3.0,75,0.00,,,0.00,,2013-03-17 03:23:00,
2013-03-16 23:34:00,58.0,50.0,29.94,SW,229,2.0,3.0,75,0.00,,,0.00,,2013-03-17 03:34:00,
2013-03-16 23:43:00,58.0,50.0,29.94,SW,229,2.0,3.0,75,0.00,,,0.00,,2013-03-17 03:43:00,
2013-03-16 23:52:00,58.0,51.0,29.94,SW,221,1.0,3.0,77,0.00,,,0.00,,2013-03-17 03:52:00,